createdAt,value
2023-05-10T00:00:33.174Z,8.5
2023-05-10T00:02:43.624Z,10.2
2023-05-10T00:04:49.240Z,9.1
2023-05-10T00:06:55.023Z,9.6
2023-05-10T00:11:06.553Z,9.5
2023-05-10T00:13:12.395Z,9.8
2023-05-10T00:15:18.066Z,10.6
2023-05-10T00:17:26.896Z,12
2023-05-10T00:19:32.561Z,10.5
2023-05-10T00:25:49.850Z,12.3
2023-05-10T00:27:55.596Z,12
2023-05-10T00:30:01.366Z,10.5
2023-05-10T00:36:21.646Z,13.4
2023-05-10T00:40:33.166Z,14.3
2023-05-10T00:51:04.939Z,15.2
2023-05-10T00:52:09.319Z,15.2
2023-05-10T00:54:15.094Z,14.7
2023-05-10T01:00:35.371Z,15.2
2023-05-10T01:02:41.260Z,14.4
2023-05-10T01:06:52.674Z,18
2023-05-10T01:13:10.018Z,18.8
2023-05-10T01:15:18.694Z,21.1
2023-05-10T01:17:24.502Z,19
2023-05-10T01:19:30.224Z,18.5
2023-05-10T01:21:35.997Z,19.2
2023-05-10T01:23:41.750Z,18.9
2023-05-10T01:25:47.514Z,19.9
2023-05-10T01:27:53.277Z,22.4
2023-05-10T01:34:13.559Z,19.3
2023-05-10T01:36:19.315Z,20.9
2023-05-10T01:50:01.243Z,23.1
2023-05-10T01:52:07.019Z,22.6
2023-05-10T01:54:12.773Z,23.6
2023-05-10T01:56:18.549Z,25.4
2023-05-10T01:58:27.248Z,23.5
2023-05-10T02:00:33.106Z,26.1
2023-05-10T02:02:38.858Z,22.8
2023-05-10T02:19:27.943Z,23.6
2023-05-10T02:23:39.460Z,24.7
2023-05-10T02:32:05.553Z,26.3
2023-05-10T02:34:11.288Z,23.4
2023-05-10T02:42:37.322Z,28.2
2023-05-10T02:44:43.091Z,27.1
2023-05-10T02:46:48.905Z,29.8
2023-05-10T02:49:59.031Z,29.8
2023-05-10T02:52:04.793Z,29.8
2023-05-10T02:54:10.558Z,28.9
2023-05-10T03:02:36.625Z,29.9
2023-05-10T03:04:42.385Z,27.2
2023-05-10T03:06:48.138Z,30.5
2023-05-10T03:11:02.622Z,37.9
2023-05-10T03:13:08.534Z,30.1
2023-05-10T03:15:14.177Z,32.3
2023-05-10T03:25:45.964Z,36
2023-05-10T03:32:03.249Z,28.5
2023-05-10T03:40:29.274Z,33.6
2023-05-10T03:42:35.034Z,31.9
2023-05-10T03:47:12.082Z,36
2023-05-10T03:49:17.858Z,32.5
2023-05-10T03:51:23.650Z,32.5
2023-05-10T04:01:55.445Z,31.2
2023-05-10T04:08:15.722Z,30.8
2023-05-10T04:10:21.466Z,29.1
2023-05-10T04:12:27.248Z,28.6
2023-05-10T04:14:33.011Z,28.9
2023-05-10T04:16:38.771Z,27.1
2023-05-10T04:18:44.530Z,27.1
2023-05-10T04:20:50.300Z,26.8
2023-05-10T04:22:59.029Z,27.5
2023-05-10T04:25:04.800Z,28.3
2023-05-10T04:27:10.550Z,30.6
2023-05-10T04:29:16.316Z,29.7
2023-05-10T04:31:22.184Z,25.1
2023-05-10T04:33:27.821Z,29
2023-05-10T04:37:42.340Z,29.4
2023-05-10T04:39:48.108Z,26.4
2023-05-10T04:41:53.866Z,28.5
2023-05-10T04:42:58.235Z,29.5
2023-05-10T04:47:12.005Z,25.4
2023-05-10T04:49:15.516Z,28.2
2023-05-10T04:51:24.257Z,32.1
2023-05-10T04:53:30.017Z,28.7
2023-05-10T05:14:30.658Z,27.5
2023-05-10T05:20:50.952Z,35.2
2023-05-10T05:22:56.697Z,35.1
2023-05-10T05:25:02.479Z,32.3
2023-05-10T05:27:08.236Z,34.8
2023-05-10T05:31:19.787Z,34.3
2023-05-10T05:33:25.502Z,30.3
2023-05-10T05:35:34.239Z,33.5
2023-05-10T05:37:40.005Z,29.8
2023-05-10T05:39:45.759Z,31.5
2023-05-10T05:40:50.140Z,32.8
2023-05-10T05:42:55.927Z,29.6
2023-05-10T05:47:07.431Z,30
2023-05-10T05:49:16.162Z,36.7
2023-05-10T05:51:21.921Z,32.1
2023-05-10T05:53:27.658Z,32.9
2023-05-10T06:01:50.772Z,31.6
2023-05-10T06:04:01.268Z,34.6
2023-05-10T06:06:06.776Z,28.5
2023-05-10T06:08:12.551Z,30.9
2023-05-10T06:14:29.816Z,30.7
2023-05-10T06:18:44.338Z,27.4
2023-05-10T06:22:55.872Z,27
2023-05-10T06:25:01.621Z,26.4
2023-05-10T06:27:07.400Z,23.5
2023-05-10T06:29:13.138Z,26.7
2023-05-10T06:33:27.649Z,29.9
2023-05-10T06:35:33.421Z,32.6
2023-05-10T06:37:39.212Z,30.2
2023-05-10T06:38:43.548Z,27.1
2023-05-10T06:40:49.308Z,27.4
2023-05-10T06:42:55.101Z,26.2
2023-05-10T06:45:00.831Z,30.2
2023-05-10T06:57:38.443Z,30.5
2023-05-10T07:03:58.708Z,26.3
2023-05-10T07:08:10.247Z,27.5
2023-05-10T07:12:21.830Z,29
2023-05-10T07:14:27.545Z,28.7
2023-05-10T07:18:42.100Z,25.9
2023-05-10T07:20:47.856Z,24.7
2023-05-10T07:22:53.597Z,25.4
2023-05-10T07:27:05.126Z,24.7
2023-05-10T07:29:10.882Z,30.1
2023-05-10T07:31:19.632Z,28.6
2023-05-10T07:35:31.186Z,24.7
2023-05-10T07:38:02.481Z,25.4
2023-05-10T07:40:08.249Z,21.7
2023-05-10T07:42:14.005Z,21
2023-05-10T07:44:22.786Z,26
2023-05-10T07:52:45.805Z,24.4
2023-05-10T07:54:51.582Z,19.5
2023-05-10T07:56:57.368Z,21.4
2023-05-10T07:59:06.139Z,20.4
2023-05-10T08:01:11.906Z,18.1
2023-05-10T08:03:17.809Z,17.2
2023-05-10T08:05:23.466Z,15.2
2023-05-10T08:07:29.231Z,16.9
2023-05-10T08:24:18.389Z,14.7
2023-05-10T08:26:24.133Z,13.8
2023-05-10T08:28:32.905Z,14.6
2023-05-10T08:30:38.686Z,14.7
2023-05-10T08:32:44.470Z,12.6
2023-05-10T08:33:48.854Z,13.2
2023-05-10T08:38:00.405Z,13.5
2023-05-10T08:40:06.193Z,12.9
2023-05-10T08:42:14.923Z,13.7
2023-05-10T08:46:26.576Z,8.5
2023-05-10T08:50:38.046Z,10.2
2023-05-10T08:52:43.856Z,12.8
2023-05-10T08:54:49.594Z,11.7
2023-05-10T08:56:58.328Z,14.5
2023-05-10T09:05:21.487Z,11.3
2023-05-10T09:07:27.214Z,10.9
2023-05-10T09:09:32.974Z,14.9
2023-05-10T09:11:41.698Z,16.3
2023-05-10T09:13:47.480Z,12
2023-05-10T09:15:53.221Z,10.5
2023-05-10T09:17:59.033Z,11.7
2023-05-10T09:22:10.576Z,9.8
2023-05-10T09:31:41.024Z,12.6
2023-05-10T09:33:46.832Z,11.9
2023-05-10T09:35:52.570Z,10.3
2023-05-10T09:52:41.743Z,10.5
2023-05-10T09:54:50.487Z,11
2023-05-10T09:56:56.256Z,8.3
2023-05-10T10:03:13.587Z,9.5
2023-05-10T10:05:19.469Z,8.3
2023-05-10T10:11:39.734Z,8.5
2023-05-10T10:13:45.452Z,7.7
2023-05-10T10:15:51.309Z,8.4
2023-05-10T10:17:57.127Z,8.1
2023-05-10T10:20:02.828Z,5.9
2023-05-10T10:24:17.312Z,8
2023-05-10T10:26:23.105Z,6.2
2023-05-10T10:29:33.236Z,6.7
2023-05-10T10:31:39.106Z,6.5
2023-05-10T10:35:50.590Z,5.5
2023-05-10T10:37:59.346Z,6.5
2023-05-10T10:40:05.099Z,6.1
2023-05-10T10:42:10.892Z,6.2
2023-05-10T10:46:22.451Z,5.3
2023-05-10T10:48:28.187Z,6.1
2023-05-10T10:50:33.984Z,5.8
2023-05-10T10:56:54.289Z,4.6
2023-05-10T10:59:00.056Z,4.8
2023-05-10T11:01:05.904Z,4.4
2023-05-10T11:03:11.675Z,3.8
2023-05-10T11:05:17.617Z,3.8
2023-05-10T11:07:26.134Z,4.1
2023-05-10T11:09:31.913Z,3.1
2023-05-10T11:11:37.720Z,3.5
2023-05-10T11:13:43.466Z,2.6
2023-05-10T11:15:49.242Z,3.1
2023-05-10T11:17:55.049Z,3.5
2023-05-10T11:20:00.766Z,4.1
2023-05-10T11:22:09.554Z,7.9
2023-05-10T11:24:15.337Z,4.4
2023-05-10T11:26:21.074Z,5.8
2023-05-10T11:28:52.328Z,4
2023-05-10T11:30:58.120Z,5.2
2023-05-10T11:33:03.888Z,3.3
2023-05-10T11:35:12.600Z,3.5
2023-05-10T11:37:18.374Z,4.3
2023-05-10T11:39:24.189Z,3.5
2023-05-10T11:41:29.944Z,4.7
2023-05-10T11:43:35.732Z,6.6
2023-05-10T11:45:41.468Z,3.2
2023-05-10T11:47:47.312Z,4
2023-05-10T11:49:55.983Z,4
2023-05-10T11:52:01.750Z,2.3
2023-05-10T12:04:39.353Z,2
2023-05-10T12:06:46.688Z,2.3
2023-05-10T12:10:58.188Z,2.7
2023-05-10T12:13:03.984Z,4.3
2023-05-10T12:15:09.733Z,2.5
2023-05-10T12:17:15.517Z,2
2023-05-10T12:24:40.156Z,3.5
2023-05-10T12:30:57.451Z,4.3
2023-05-10T12:33:06.262Z,3.8
2023-05-10T12:35:11.956Z,3.5
2023-05-10T12:37:17.739Z,4.3
2023-05-10T12:39:23.539Z,4.1
2023-05-10T12:41:29.303Z,3.8
2023-05-10T12:47:49.614Z,3.9
2023-05-10T12:49:55.351Z,3.6
2023-05-10T12:52:01.140Z,4.3
2023-05-10T12:58:34.396Z,5.1
2023-05-10T13:00:24.233Z,4.6
2023-05-10T13:02:32.984Z,5.9
2023-05-10T13:04:38.783Z,4
2023-05-10T13:08:50.268Z,4.9
2023-05-10T13:10:56.061Z,4.6
2023-05-10T13:13:01.831Z,3.9
2023-05-10T13:15:07.604Z,4.5
2023-05-10T13:17:16.430Z,4.7
2023-05-10T13:21:27.887Z,5.1
2023-05-10T13:22:39.853Z,5.1
2023-05-10T13:26:43.801Z,5.1
2023-05-10T13:28:49.572Z,4
2023-05-10T13:30:58.353Z,5.8
2023-05-10T13:33:04.124Z,7.5
2023-05-10T13:35:09.822Z,5.5
2023-05-10T13:37:15.601Z,6.5
2023-05-10T13:39:21.376Z,4.3
2023-05-10T13:41:27.156Z,4.6
2023-05-10T13:47:47.496Z,4.8
2023-05-10T13:54:04.771Z,4.2
2023-05-10T13:56:10.526Z,6.1
2023-05-10T13:58:16.299Z,5.5
2023-05-10T14:00:25.059Z,4
2023-05-10T14:02:30.938Z,4.8
2023-05-10T14:04:36.583Z,4.8
2023-05-10T14:06:42.361Z,4.2
2023-05-10T14:08:48.189Z,5
2023-05-10T14:12:59.668Z,4.7
2023-05-10T14:15:08.420Z,5.3
2023-05-10T14:17:14.195Z,4.2
2023-05-10T14:19:19.973Z,5.3
2023-05-10T14:20:24.336Z,5.6
2023-05-10T14:22:30.097Z,4.5
2023-05-10T14:24:35.871Z,6.2
2023-05-10T14:26:41.641Z,4.4
2023-05-10T14:28:50.402Z,3.8
2023-05-10T14:30:56.150Z,4
2023-05-10T14:33:01.947Z,3.6
2023-05-10T14:35:08.268Z,4
2023-05-10T14:37:13.445Z,5.2
2023-05-10T14:39:19.235Z,4.1
2023-05-10T14:41:24.996Z,4.5
2023-05-10T14:43:33.736Z,5
2023-05-10T14:45:39.562Z,4.3
2023-05-10T14:47:45.262Z,4.2
2023-05-10T14:51:56.782Z,3.7
2023-05-10T14:58:17.059Z,3.6
2023-05-10T15:00:22.824Z,5.8
2023-05-10T15:13:00.449Z,4.9
2023-05-10T15:17:12.004Z,4.8
2023-05-10T15:19:43.267Z,5
2023-05-10T15:21:49.041Z,7
2023-05-10T15:23:54.817Z,5.3
2023-05-10T15:28:09.345Z,4.9
2023-05-10T15:30:15.138Z,5.1
2023-05-10T15:36:32.464Z,5.4
2023-05-10T15:40:47.009Z,5.2
2023-05-10T15:42:52.785Z,7.8
2023-05-10T15:44:58.540Z,7.3
2023-05-10T15:47:04.400Z,7.3
2023-05-10T15:51:15.880Z,6.2
2023-05-10T15:53:21.662Z,7.6
2023-05-10T15:55:30.404Z,7.2
2023-05-10T15:59:41.969Z,7.7
2023-05-10T16:01:47.810Z,6.9
2023-05-10T16:03:53.540Z,7.5
2023-05-10T16:05:59.320Z,6.9
2023-05-10T16:08:05.116Z,9.7
2023-05-10T16:10:13.865Z,9.7
2023-05-10T16:12:19.648Z,7.9
2023-05-10T16:14:25.397Z,8.2
2023-05-10T16:15:29.807Z,8
2023-05-10T16:19:41.365Z,7.9
2023-05-10T16:23:55.896Z,8.7
2023-05-10T16:26:01.675Z,7.8
2023-05-10T16:28:07.440Z,8.4
2023-05-10T16:30:13.243Z,10.6
2023-05-10T16:32:19.024Z,8.8
2023-05-10T16:34:24.793Z,7.9
2023-05-10T16:47:02.455Z,8.9
2023-05-10T16:51:14.029Z,8.3
2023-05-10T16:53:22.763Z,11.1
2023-05-10T16:55:28.595Z,8.8
2023-05-10T16:57:34.365Z,9.6
2023-05-10T16:59:40.122Z,7.8
2023-05-10T17:01:45.925Z,8.7
2023-05-10T17:03:51.819Z,8.8
2023-05-10T17:05:57.472Z,6.8
2023-05-10T17:08:06.197Z,11.6
2023-05-10T17:10:11.977Z,8.6
2023-05-10T17:13:22.106Z,9.5
2023-05-10T17:15:27.935Z,8.3
2023-05-10T17:19:39.443Z,8.7
2023-05-10T17:21:48.184Z,11
2023-05-10T17:23:53.970Z,9.2
2023-05-10T17:26:01.694Z,8.7
2023-05-10T17:32:17.101Z,8.4
2023-05-10T17:34:22.925Z,7.4
2023-05-10T17:36:31.649Z,7.3
2023-05-10T17:38:37.456Z,6.8
2023-05-10T17:40:43.205Z,8.5
2023-05-10T17:42:48.987Z,6.3
2023-05-10T17:44:54.783Z,6.2
2023-05-10T17:51:15.066Z,6.4
2023-05-10T17:53:20.884Z,7.1
2023-05-10T17:55:26.636Z,7.4
2023-05-10T17:57:32.441Z,6.2
2023-05-10T17:59:38.220Z,6.4
2023-05-10T18:01:44.161Z,7.5
2023-05-10T18:05:58.618Z,6.9
2023-05-10T18:08:04.356Z,5.5
2023-05-10T18:10:11.745Z,7.2
2023-05-10T18:13:21.848Z,6.6
2023-05-10T18:17:33.488Z,6.3
2023-05-10T18:19:42.155Z,5
2023-05-10T18:21:47.928Z,6.1
2023-05-10T18:30:11.075Z,9.2
2023-05-10T18:32:16.846Z,9
2023-05-10T18:34:25.598Z,7.3
2023-05-10T18:36:31.367Z,12.9
2023-05-10T18:38:37.164Z,6.2
2023-05-10T18:40:42.967Z,5.2
2023-05-10T18:42:48.724Z,8.1
2023-05-10T18:44:54.493Z,6.6
2023-05-10T18:47:00.294Z,6.3
2023-05-10T18:49:09.042Z,6.2
2023-05-10T18:51:14.831Z,6.2
2023-05-10T18:53:20.612Z,8.5
2023-05-10T18:55:26.375Z,8
2023-05-10T18:57:32.170Z,8.4
2023-05-10T18:59:37.963Z,8.4
2023-05-10T19:01:44.704Z,7.5
2023-05-10T19:14:47.842Z,18.2
2023-05-10T19:16:56.582Z,10.5
2023-05-10T19:23:14.961Z,8.8
2023-05-10T19:25:19.838Z,9.1
2023-05-10T19:27:25.464Z,9.1
2023-05-10T19:29:31.207Z,10.8
2023-05-10T19:40:03.034Z,9.5
2023-05-10T19:42:08.788Z,10
2023-05-10T19:44:14.574Z,11.9
2023-05-10T19:46:23.372Z,14.9
2023-05-10T19:48:29.108Z,14.8
2023-05-10T19:50:34.876Z,13.3
2023-05-10T19:52:40.668Z,12.8
2023-05-10T19:58:57.966Z,9.4
2023-05-10T20:06:22.657Z,10.9
2023-05-10T20:08:28.421Z,12
2023-05-10T20:10:34.206Z,10.9
2023-05-10T20:12:39.967Z,9.1
2023-05-10T20:14:48.715Z,12.4
2023-05-10T20:16:54.525Z,11
2023-05-10T20:19:00.327Z,11.4
2023-05-10T20:21:06.050Z,11.1
2023-05-10T20:25:17.614Z,9.4
2023-05-10T20:27:23.377Z,11.7
2023-05-10T20:29:32.109Z,10.5
2023-05-10T20:33:43.676Z,17.8
2023-05-10T20:35:49.463Z,10.4
2023-05-10T20:40:01.014Z,9
2023-05-10T20:42:06.808Z,10
2023-05-10T20:44:15.542Z,10.8
2023-05-10T20:46:21.399Z,8.8
2023-05-10T20:48:27.108Z,10.1
2023-05-10T20:54:44.431Z,10.9
2023-05-10T20:56:50.225Z,10.8
2023-05-10T21:01:04.753Z,9.5
2023-05-10T21:03:10.579Z,10.9
2023-05-10T21:04:14.895Z,11.8
2023-05-10T21:14:46.759Z,10.3
2023-05-10T21:16:52.540Z,9.8
2023-05-10T21:18:58.411Z,9
2023-05-10T21:21:04.090Z,9.9
2023-05-10T21:23:09.881Z,11.7
2023-05-10T21:27:24.388Z,9.9
2023-05-10T21:29:30.154Z,10
2023-05-10T21:31:35.970Z,8.8
2023-05-10T21:37:53.274Z,8.9
2023-05-10T21:39:59.049Z,9
2023-05-10T21:42:07.812Z,9.1
2023-05-10T21:46:19.437Z,8.7
2023-05-10T21:48:25.118Z,9.2
2023-05-10T21:50:30.876Z,8.4
2023-05-10T21:52:36.661Z,7.5
2023-05-10T21:54:42.425Z,9.2
2023-05-10T22:02:07.140Z,9.6
2023-05-10T22:04:12.852Z,8.7
2023-05-10T22:06:18.616Z,13.9
2023-05-10T22:08:24.396Z,8.4
2023-05-10T22:10:33.136Z,10.1
2023-05-10T22:12:38.881Z,10.4
2023-05-10T22:14:44.648Z,10.9
2023-05-10T22:16:50.521Z,8.9
2023-05-10T22:18:56.249Z,8.7
2023-05-10T22:21:01.943Z,10
2023-05-10T22:25:16.457Z,8.4
2023-05-10T22:27:22.270Z,8.2
2023-05-10T22:31:33.896Z,8.5
2023-05-10T22:42:05.559Z,9
2023-05-10T22:44:11.321Z,8.7
2023-05-10T22:46:17.147Z,9.6
2023-05-10T22:48:22.852Z,8.5
2023-05-10T22:50:28.618Z,8.8
2023-05-10T22:52:34.392Z,11.4
2023-05-10T22:54:43.143Z,9.8
2023-05-10T22:56:48.910Z,12.1
2023-05-10T22:58:54.677Z,8.8
2023-05-10T23:09:52.008Z,9.3
2023-05-10T23:11:57.775Z,8.3
2023-05-10T23:14:03.557Z,9.2
2023-05-10T23:18:15.049Z,9.3
2023-05-10T23:22:29.566Z,10.7
2023-05-10T23:24:35.303Z,10
2023-05-10T23:28:46.846Z,9.9
2023-05-10T23:30:52.607Z,9.6
2023-05-10T23:32:58.381Z,8.8
2023-05-10T23:35:04.101Z,9.2
2023-05-10T23:37:12.862Z,9.6
2023-05-10T23:39:18.621Z,10.1
2023-05-10T23:43:30.155Z,10.3
2023-05-10T23:45:35.975Z,9.1
2023-05-10T23:47:41.767Z,9.1
2023-05-10T23:49:47.446Z,9.2
2023-05-10T23:56:07.720Z,8.9
2023-05-10T23:57:12.072Z,9.8
